createdAt,value
2023-05-08T00:00:43.898Z,22.53
2023-05-08T00:01:43.948Z,22.54
2023-05-08T00:02:44.090Z,22.53
2023-05-08T00:03:44.323Z,22.53
2023-05-08T00:04:44.203Z,22.54
2023-05-08T00:05:44.206Z,22.51
2023-05-08T00:06:44.287Z,22.51
2023-05-08T00:07:44.312Z,22.50
2023-05-08T00:08:44.400Z,22.51
2023-05-08T00:09:44.458Z,22.48
2023-05-08T00:10:44.542Z,22.53
2023-05-08T00:11:44.547Z,22.51
2023-05-08T00:12:44.681Z,22.50
2023-05-08T00:13:44.680Z,22.50
2023-05-08T00:14:44.738Z,22.51
2023-05-08T00:15:44.789Z,22.53
2023-05-08T00:16:45.306Z,22.50
2023-05-08T00:17:45.007Z,22.50
2023-05-08T00:18:44.957Z,22.50
2023-05-08T00:19:45.053Z,22.50
2023-05-08T00:20:45.125Z,22.50
2023-05-08T00:21:45.163Z,22.53
2023-05-08T00:22:45.227Z,22.48
2023-05-08T00:23:45.279Z,22.51
2023-05-08T00:24:45.362Z,22.53
2023-05-08T00:25:45.412Z,22.51
2023-05-08T00:26:45.744Z,22.48
2023-05-08T00:27:45.526Z,22.48
2023-05-08T00:28:45.604Z,22.51
2023-05-08T00:29:45.675Z,22.50
2023-05-08T00:30:45.732Z,22.50
2023-05-08T00:31:45.870Z,22.50
2023-05-08T00:32:45.876Z,22.50
2023-05-08T00:33:45.932Z,22.51
2023-05-08T00:34:46.010Z,22.48
2023-05-08T00:35:46.039Z,22.50
2023-05-08T00:36:46.103Z,22.51
2023-05-08T00:37:46.173Z,22.47
2023-05-08T00:38:46.264Z,22.50
2023-05-08T00:39:46.270Z,22.50
2023-05-08T00:40:46.328Z,22.48
2023-05-08T00:41:46.399Z,22.48
2023-05-08T00:42:46.469Z,22.48
2023-05-08T00:43:46.528Z,22.48
2023-05-08T00:44:46.632Z,22.50
2023-05-08T00:45:46.692Z,22.50
2023-05-08T00:46:46.899Z,22.48
2023-05-08T00:47:46.790Z,22.47
2023-05-08T00:48:46.845Z,22.48
2023-05-08T00:49:46.917Z,22.50
2023-05-08T00:50:46.982Z,22.50
2023-05-08T00:51:47.030Z,22.47
2023-05-08T00:52:47.044Z,22.46
2023-05-08T00:53:47.143Z,22.50
2023-05-08T00:54:47.175Z,22.46
2023-05-08T00:55:47.260Z,22.50
2023-05-08T00:56:47.313Z,22.50
2023-05-08T00:57:47.382Z,22.50
2023-05-08T00:58:47.437Z,22.48
2023-05-08T00:59:47.510Z,22.50
2023-05-08T01:00:47.596Z,22.50
2023-05-08T01:01:47.717Z,22.47
2023-05-08T01:02:47.761Z,22.48
2023-05-08T01:03:47.817Z,22.48
2023-05-08T01:04:47.832Z,22.47
2023-05-08T01:05:47.876Z,22.48
2023-05-08T01:06:47.952Z,22.48
2023-05-08T01:07:48.057Z,22.47
2023-05-08T01:08:48.055Z,22.50
2023-05-08T01:09:48.115Z,22.47
2023-05-08T01:10:48.177Z,22.48
2023-05-08T01:11:48.263Z,22.50
2023-05-08T01:12:48.345Z,22.47
2023-05-08T01:13:48.389Z,22.47
2023-05-08T01:14:48.442Z,22.46
2023-05-08T01:15:48.517Z,22.47
2023-05-08T01:16:48.539Z,22.47
2023-05-08T01:17:48.651Z,22.48
2023-05-08T01:18:48.669Z,22.47
2023-05-08T01:19:48.721Z,22.46
2023-05-08T01:20:48.833Z,22.48
2023-05-08T01:21:48.876Z,22.47
2023-05-08T01:22:48.928Z,22.48
2023-05-08T01:23:48.990Z,22.47
2023-05-08T01:24:49.058Z,22.47
2023-05-08T01:25:49.069Z,22.47
2023-05-08T01:26:49.178Z,22.46
2023-05-08T01:27:49.198Z,22.47
2023-05-08T01:28:49.253Z,22.48
2023-05-08T01:29:49.347Z,22.47
2023-05-08T01:30:49.412Z,22.47
2023-05-08T01:31:49.412Z,22.48
2023-05-08T01:32:49.499Z,22.47
2023-05-08T01:33:49.549Z,22.47
2023-05-08T01:34:49.610Z,22.47
2023-05-08T01:35:49.660Z,22.46
2023-05-08T01:36:49.792Z,22.47
2023-05-08T01:37:49.809Z,22.46
2023-05-08T01:38:49.821Z,22.47
2023-05-08T01:39:49.922Z,22.46
2023-05-08T01:40:49.942Z,22.46
2023-05-08T01:41:50.024Z,22.47
2023-05-08T01:42:50.077Z,22.47
2023-05-08T01:43:50.234Z,22.46
2023-05-08T01:44:50.175Z,22.48
2023-05-08T01:45:50.295Z,22.47
2023-05-08T01:46:50.856Z,22.46
2023-05-08T01:47:50.410Z,22.46
2023-05-08T01:48:50.477Z,22.47
2023-05-08T01:49:50.531Z,22.48
2023-05-08T01:50:50.617Z,22.46
2023-05-08T01:51:50.682Z,22.46
2023-05-08T01:52:50.664Z,22.44
2023-05-08T01:53:50.729Z,22.46
2023-05-08T01:54:50.765Z,22.46
2023-05-08T01:55:50.852Z,22.44
2023-05-08T01:56:51.315Z,22.47
2023-05-08T01:57:50.970Z,22.46
2023-05-08T01:58:51.035Z,22.44
2023-05-08T01:59:51.105Z,22.47
2023-05-08T02:00:51.152Z,22.44
2023-05-08T02:01:51.358Z,22.44
2023-05-08T02:02:51.407Z,22.46
2023-05-08T02:03:51.458Z,22.44
2023-05-08T02:04:51.431Z,22.46
2023-05-08T02:05:51.498Z,22.44
2023-05-08T02:06:51.820Z,22.44
2023-05-08T02:07:51.591Z,22.47
2023-05-08T02:08:51.653Z,22.47
2023-05-08T02:09:51.687Z,22.46
2023-05-08T02:10:51.778Z,22.46
2023-05-08T02:11:51.837Z,22.47
2023-05-08T02:12:51.929Z,22.44
2023-05-08T02:13:51.959Z,22.43
2023-05-08T02:14:52.009Z,22.44
2023-05-08T02:15:52.082Z,22.46
2023-05-08T02:16:52.155Z,22.44
2023-05-08T02:17:52.293Z,22.46
2023-05-08T02:18:52.247Z,22.46
2023-05-08T02:19:52.312Z,22.44
2023-05-08T02:20:52.332Z,22.44
2023-05-08T02:21:52.422Z,22.44
2023-05-08T02:22:52.477Z,22.44
2023-05-08T02:23:52.558Z,22.47
2023-05-08T02:24:52.603Z,22.43
2023-05-08T02:25:52.652Z,22.44
2023-05-08T02:26:52.713Z,22.44
2023-05-08T02:27:52.808Z,22.46
2023-05-08T02:28:52.863Z,22.43
2023-05-08T02:29:52.928Z,22.44
2023-05-08T02:30:52.966Z,22.43
2023-05-08T02:31:53.062Z,22.44
2023-05-08T02:32:53.140Z,22.43
2023-05-08T02:33:53.182Z,22.44
2023-05-08T02:35:02.583Z,22.42
2023-05-08T02:35:54.218Z,22.42
2023-05-08T02:36:53.218Z,22.44
2023-05-08T02:37:53.191Z,22.42
2023-05-08T02:38:53.203Z,22.44
2023-05-08T02:39:53.210Z,22.43
2023-05-08T02:40:53.138Z,22.43
2023-05-08T02:41:53.184Z,22.42
2023-05-08T02:42:53.134Z,22.43
2023-05-08T02:43:53.134Z,22.43
2023-05-08T02:44:53.333Z,22.42
2023-05-08T02:45:53.288Z,22.42
2023-05-08T02:46:53.313Z,22.42
2023-05-08T02:47:53.449Z,22.42
2023-05-08T02:48:53.472Z,22.43
2023-05-08T02:49:53.539Z,22.43
2023-05-08T02:50:53.562Z,22.43
2023-05-08T02:51:53.660Z,22.43
2023-05-08T02:52:53.714Z,22.43
2023-05-08T02:53:53.834Z,22.42
2023-05-08T02:54:53.837Z,22.43
2023-05-08T02:55:53.879Z,22.44
2023-05-08T02:56:53.963Z,22.40
2023-05-08T02:57:54.005Z,22.43
2023-05-08T02:58:54.049Z,22.42
2023-05-08T02:59:54.120Z,22.43
2023-05-08T03:00:54.232Z,22.43
2023-05-08T03:01:54.332Z,22.43
2023-05-08T03:02:54.361Z,22.43
2023-05-08T03:03:54.420Z,22.42
2023-05-08T03:04:54.456Z,22.42
2023-05-08T03:05:54.568Z,22.40
2023-05-08T03:06:54.594Z,22.42
2023-05-08T03:07:54.639Z,22.40
2023-05-08T03:08:54.747Z,22.43
2023-05-08T03:09:54.797Z,22.43
2023-05-08T03:10:54.850Z,22.43
2023-05-08T03:11:54.913Z,22.42
2023-05-08T03:12:54.976Z,22.42
2023-05-08T03:13:55.040Z,22.42
2023-05-08T03:14:55.064Z,22.43
2023-05-08T03:15:55.161Z,22.43
2023-05-08T03:16:55.442Z,22.42
2023-05-08T03:17:55.362Z,22.43
2023-05-08T03:18:55.348Z,22.42
2023-05-08T03:19:55.431Z,22.42
2023-05-08T03:20:55.464Z,22.40
2023-05-08T03:21:55.834Z,22.40
2023-05-08T03:22:55.571Z,22.43
2023-05-08T03:23:55.626Z,22.43
2023-05-08T03:24:55.795Z,22.39
2023-05-08T03:25:55.800Z,22.40
2023-05-08T03:26:55.812Z,22.42
2023-05-08T03:27:55.892Z,22.42
2023-05-08T03:28:55.921Z,22.42
2023-05-08T03:29:56.016Z,22.42
2023-05-08T03:30:56.107Z,22.43
2023-05-08T03:31:56.365Z,22.42
2023-05-08T03:32:56.216Z,22.42
2023-05-08T03:33:56.239Z,22.42
2023-05-08T03:34:56.310Z,22.39
2023-05-08T03:35:56.344Z,22.40
2023-05-08T03:36:56.419Z,22.40
2023-05-08T03:37:56.456Z,22.40
2023-05-08T03:38:56.498Z,22.40
2023-05-08T03:39:56.575Z,22.43
2023-05-08T03:40:56.653Z,22.43
2023-05-08T03:41:56.693Z,22.39
2023-05-08T03:42:56.711Z,22.42
2023-05-08T03:43:56.781Z,22.37
2023-05-08T03:44:56.842Z,22.40
2023-05-08T03:45:56.916Z,22.40
2023-05-08T03:46:57.084Z,22.37
2023-05-08T03:47:57.013Z,22.40
2023-05-08T03:48:57.087Z,22.40
2023-05-08T03:49:57.094Z,22.40
2023-05-08T03:50:57.171Z,22.37
2023-05-08T03:51:57.215Z,22.37
2023-05-08T03:52:57.242Z,22.37
2023-05-08T03:53:57.288Z,22.40
2023-05-08T03:54:57.318Z,22.40
2023-05-08T03:55:57.385Z,22.39
2023-05-08T03:56:57.435Z,22.42
2023-05-08T03:57:57.454Z,22.40
2023-05-08T03:58:57.512Z,22.39
2023-05-08T03:59:57.576Z,22.40
2023-05-08T04:00:57.637Z,22.40
2023-05-08T04:01:57.912Z,22.40
2023-05-08T04:02:57.840Z,22.39
2023-05-08T04:03:57.832Z,22.37
2023-05-08T04:04:57.818Z,22.39
2023-05-08T04:05:57.908Z,22.40
2023-05-08T04:06:57.952Z,22.40
2023-05-08T04:07:57.973Z,22.37
2023-05-08T04:08:58.005Z,22.39
2023-05-08T04:09:58.091Z,22.39
2023-05-08T04:10:58.086Z,22.39
2023-05-08T04:11:58.139Z,22.40
2023-05-08T04:12:58.200Z,22.37
2023-05-08T04:13:58.227Z,22.39
2023-05-08T04:14:58.258Z,22.37
2023-05-08T04:15:58.341Z,22.40
2023-05-08T04:16:58.337Z,22.40
2023-05-08T04:17:58.417Z,22.37
2023-05-08T04:18:58.466Z,22.39
2023-05-08T04:19:58.489Z,22.40
2023-05-08T04:20:58.542Z,22.39
2023-05-08T04:21:58.584Z,22.39
2023-05-08T04:22:58.608Z,22.37
2023-05-08T04:23:58.616Z,22.39
2023-05-08T04:24:58.655Z,22.39
2023-05-08T04:25:58.670Z,22.36
2023-05-08T04:26:58.696Z,22.40
2023-05-08T04:27:58.730Z,22.40
2023-05-08T04:28:58.734Z,22.39
2023-05-08T04:29:58.829Z,22.40
2023-05-08T04:30:58.821Z,22.37
2023-05-08T04:31:58.908Z,22.39
2023-05-08T04:32:58.941Z,22.39
2023-05-08T04:33:58.935Z,22.39
2023-05-08T04:34:58.969Z,22.37
2023-05-08T04:35:58.965Z,22.37
2023-05-08T04:36:59.238Z,22.36
2023-05-08T04:37:59.061Z,22.37
2023-05-08T04:38:59.312Z,22.36
2023-05-08T04:39:59.187Z,22.39
2023-05-08T04:40:59.273Z,22.37
2023-05-08T04:41:59.408Z,22.39
2023-05-08T04:42:59.374Z,22.37
2023-05-08T04:43:59.397Z,22.39
2023-05-08T04:44:59.469Z,22.37
2023-05-08T04:45:59.531Z,22.37
2023-05-08T04:46:59.589Z,22.37
2023-05-08T04:47:59.696Z,22.37
2023-05-08T04:48:59.650Z,22.36
2023-05-08T04:50:02.224Z,22.39
2023-05-08T04:50:59.705Z,22.40
2023-05-08T04:51:59.715Z,22.42
2023-05-08T04:52:59.733Z,22.39
2023-05-08T04:53:59.706Z,22.40
2023-05-08T04:54:59.703Z,22.37
2023-05-08T04:55:59.702Z,22.37
2023-05-08T04:56:59.702Z,22.39
2023-05-08T04:57:59.900Z,22.37
2023-05-08T04:58:59.655Z,22.36
2023-05-08T04:59:59.666Z,22.37
2023-05-08T05:00:59.672Z,22.37
2023-05-08T05:01:59.709Z,22.36
2023-05-08T05:02:59.680Z,22.37
2023-05-08T05:03:59.704Z,22.39
2023-05-08T05:04:59.648Z,22.39
2023-05-08T05:05:59.602Z,22.40
2023-05-08T05:06:59.610Z,22.42
2023-05-08T05:07:59.590Z,22.40
2023-05-08T05:08:59.600Z,22.39
2023-05-08T05:09:59.556Z,22.39
2023-05-08T05:10:59.577Z,22.40
2023-05-08T05:11:59.571Z,22.40
2023-05-08T05:12:59.569Z,22.39
2023-05-08T05:13:59.550Z,22.39
2023-05-08T05:14:59.569Z,22.39
2023-05-08T05:15:59.561Z,22.39
2023-05-08T05:16:59.512Z,22.40
2023-05-08T05:17:59.517Z,22.40
2023-05-08T05:18:59.522Z,22.42
2023-05-08T05:19:59.486Z,22.40
2023-05-08T05:20:59.511Z,22.42
2023-05-08T05:21:59.485Z,22.40
2023-05-08T05:22:59.492Z,22.40
2023-05-08T05:23:59.488Z,22.40
2023-05-08T05:24:59.461Z,22.37
2023-05-08T05:25:59.467Z,22.40
2023-05-08T05:26:59.441Z,22.40
2023-05-08T05:27:59.446Z,22.37
2023-05-08T05:28:59.437Z,22.40
2023-05-08T05:29:59.433Z,22.39
2023-05-08T05:30:59.486Z,22.39
2023-05-08T05:31:59.510Z,22.40
2023-05-08T05:32:59.495Z,22.39
2023-05-08T05:33:59.544Z,22.37
2023-05-08T05:34:59.554Z,22.40
2023-05-08T05:35:59.610Z,22.39
2023-05-08T05:36:59.626Z,22.37
2023-05-08T05:37:59.933Z,22.36
2023-05-08T05:38:59.736Z,22.36
2023-05-08T05:39:59.785Z,22.35
2023-05-08T05:40:59.857Z,22.35
2023-05-08T05:41:59.826Z,22.36
2023-05-08T05:42:59.863Z,22.35
2023-05-08T05:43:59.924Z,22.35
2023-05-08T05:44:59.925Z,22.36
2023-05-08T05:46:00.002Z,22.30
2023-05-08T05:47:00.022Z,22.27
2023-05-08T05:48:00.131Z,22.36
2023-05-08T05:49:00.025Z,22.36
2023-05-08T05:50:00.069Z,22.36
2023-05-08T05:51:00.126Z,22.36
2023-05-08T05:52:00.176Z,22.46
2023-05-08T05:53:00.253Z,22.53
2023-05-08T05:54:00.264Z,22.58
2023-05-08T05:55:00.314Z,22.67
2023-05-08T05:56:00.406Z,22.68
2023-05-08T05:57:00.436Z,22.71
2023-05-08T05:58:00.943Z,22.82
2023-05-08T05:59:00.512Z,22.91
2023-05-08T06:00:00.548Z,22.99
2023-05-08T06:01:00.536Z,23.02
2023-05-08T06:02:00.617Z,23.05
2023-05-08T06:03:01.065Z,23.05
2023-05-08T06:04:00.653Z,23.02
2023-05-08T06:05:00.642Z,23.10
2023-05-08T06:06:00.685Z,23.07
2023-05-08T06:07:00.685Z,23.14
2023-05-08T06:08:00.920Z,23.19
2023-05-08T06:09:00.713Z,23.20
2023-05-08T06:10:00.708Z,23.23
2023-05-08T06:11:00.714Z,23.24
2023-05-08T06:12:00.716Z,23.29
2023-05-08T06:13:00.858Z,23.27
2023-05-08T06:14:00.725Z,23.31
2023-05-08T06:15:00.709Z,23.31
2023-05-08T06:16:00.731Z,23.37
2023-05-08T06:17:00.808Z,23.39
2023-05-08T06:18:00.757Z,23.39
2023-05-08T06:19:00.727Z,23.41
2023-05-08T06:20:00.724Z,23.44
2023-05-08T06:21:00.736Z,23.44
2023-05-08T06:22:00.866Z,23.47
2023-05-08T06:23:00.964Z,23.48
2023-05-08T06:24:00.777Z,23.51
2023-05-08T06:25:00.817Z,23.53
2023-05-08T06:26:00.869Z,23.55
2023-05-08T06:27:00.947Z,23.55
2023-05-08T06:28:00.964Z,23.55
2023-05-08T06:29:01.072Z,23.60
2023-05-08T06:30:01.116Z,23.60
2023-05-08T06:31:01.197Z,23.61
2023-05-08T06:32:01.181Z,23.62
2023-05-08T06:33:01.338Z,23.64
2023-05-08T06:34:01.315Z,23.64
2023-05-08T06:35:01.347Z,23.66
2023-05-08T06:36:01.355Z,23.69
2023-05-08T06:37:01.385Z,23.69
2023-05-08T06:38:01.437Z,23.71
2023-05-08T06:39:01.528Z,23.74
2023-05-08T06:40:11.664Z,23.75
2023-05-08T06:41:02.575Z,23.75
2023-05-08T06:42:01.573Z,23.76
2023-05-08T06:43:01.972Z,23.78
2023-05-08T06:44:01.570Z,23.79
2023-05-08T06:45:01.642Z,23.82
2023-05-08T06:46:01.572Z,23.81
2023-05-08T06:47:01.549Z,23.82
2023-05-08T06:48:01.569Z,23.85
2023-05-08T06:49:01.548Z,23.85
2023-05-08T06:50:01.514Z,23.86
2023-05-08T06:51:01.532Z,23.86
2023-05-08T06:52:01.573Z,23.88
2023-05-08T06:53:02.001Z,23.89
2023-05-08T06:54:01.693Z,23.89
2023-05-08T06:55:01.714Z,23.89
2023-05-08T06:56:01.758Z,23.90
2023-05-08T06:57:01.803Z,23.93
2023-05-08T06:58:01.967Z,23.88
2023-05-08T06:59:08.413Z,23.92
2023-05-08T07:00:02.934Z,23.93
2023-05-08T07:01:01.873Z,23.95
2023-05-08T07:02:01.949Z,23.98
2023-05-08T07:03:01.871Z,24.00
2023-05-08T07:04:01.871Z,24.00
2023-05-08T07:05:01.911Z,24.02
2023-05-08T07:06:01.833Z,24.03
2023-05-08T07:07:01.847Z,24.06
2023-05-08T07:08:01.844Z,24.06
2023-05-08T07:09:01.883Z,24.06
2023-05-08T07:10:01.832Z,24.09
2023-05-08T07:11:01.794Z,24.09
2023-05-08T07:12:01.779Z,24.10
2023-05-08T07:13:01.845Z,24.13
2023-05-08T07:14:01.785Z,24.12
2023-05-08T07:15:05.696Z,24.12
2023-05-08T07:16:02.911Z,24.13
2023-05-08T07:17:01.756Z,24.12
2023-05-08T07:18:01.811Z,24.15
2023-05-08T07:19:01.754Z,24.15
2023-05-08T07:20:01.765Z,24.17
2023-05-08T07:21:01.727Z,24.16
2023-05-08T07:22:01.761Z,24.15
2023-05-08T07:23:02.025Z,24.17
2023-05-08T07:24:01.708Z,24.16
2023-05-08T07:25:01.725Z,24.17
2023-05-08T07:26:01.730Z,24.19
2023-05-08T07:27:01.708Z,24.20
2023-05-08T07:28:01.691Z,24.20
2023-05-08T07:29:01.692Z,24.19
2023-05-08T07:30:01.676Z,24.21
2023-05-08T07:31:01.685Z,24.21
2023-05-08T07:32:01.807Z,24.23
2023-05-08T07:33:01.713Z,24.23
2023-05-08T07:34:01.656Z,24.24
2023-05-08T07:35:01.614Z,24.24
2023-05-08T07:36:01.636Z,24.24
2023-05-08T07:37:01.628Z,24.23
2023-05-08T07:38:01.623Z,24.26
2023-05-08T07:39:01.698Z,24.26
2023-05-08T07:40:01.699Z,24.26
2023-05-08T07:41:01.721Z,24.26
2023-05-08T07:42:01.660Z,24.26
2023-05-08T07:43:01.719Z,24.26
2023-05-08T07:44:01.716Z,24.28
2023-05-08T07:45:01.737Z,24.30
2023-05-08T07:46:01.751Z,24.30
2023-05-08T07:47:01.769Z,24.27
2023-05-08T07:48:01.823Z,24.27
2023-05-08T07:49:01.789Z,24.28
2023-05-08T07:50:01.800Z,24.23
2023-05-08T07:51:01.853Z,24.27
2023-05-08T07:52:01.837Z,24.27
2023-05-08T07:53:01.898Z,24.33
2023-05-08T07:54:01.868Z,24.31
2023-05-08T07:55:01.878Z,24.34
2023-05-08T07:56:01.887Z,24.38
2023-05-08T07:57:01.858Z,24.38
2023-05-08T07:58:01.899Z,24.47
2023-05-08T07:59:01.892Z,24.47
2023-05-08T08:00:01.877Z,24.44
2023-05-08T08:01:01.900Z,24.50
2023-05-08T08:02:01.939Z,24.52
2023-05-08T08:03:01.978Z,24.52
2023-05-08T08:04:02.411Z,24.54
2023-05-08T08:05:01.937Z,24.55
2023-05-08T08:06:01.975Z,24.58
2023-05-08T08:07:01.981Z,24.57
2023-05-08T08:08:02.009Z,24.61
2023-05-08T08:09:02.027Z,24.61
2023-05-08T08:10:02.046Z,24.62
2023-05-08T08:11:03.692Z,24.64
2023-05-08T08:12:02.154Z,24.65
2023-05-08T08:13:02.361Z,24.65
2023-05-08T08:14:02.279Z,24.65
2023-05-08T08:15:02.343Z,24.67
2023-05-08T08:16:02.394Z,24.68
2023-05-08T08:17:02.503Z,24.68
2023-05-08T08:18:02.538Z,24.69
2023-05-08T08:19:02.560Z,24.74
2023-05-08T08:20:02.729Z,24.72
2023-05-08T08:21:02.696Z,24.72
2023-05-08T08:22:02.734Z,24.74
2023-05-08T08:23:03.039Z,24.74
2023-05-08T08:24:02.849Z,24.72
2023-05-08T08:25:02.960Z,24.76
2023-05-08T08:26:02.957Z,24.76
2023-05-08T08:27:03.069Z,24.79
2023-05-08T08:28:03.096Z,24.81
2023-05-08T08:29:03.120Z,24.81
2023-05-08T08:30:15.988Z,24.83
2023-05-08T08:31:04.222Z,24.83
2023-05-08T08:32:03.182Z,24.85
2023-05-08T08:33:03.245Z,24.86
2023-05-08T08:34:03.194Z,24.86
2023-05-08T08:35:03.159Z,24.87
2023-05-08T08:36:03.137Z,24.87
2023-05-08T08:37:03.188Z,24.87
2023-05-08T08:38:03.136Z,24.89
2023-05-08T08:39:03.124Z,24.92
2023-05-08T08:40:03.130Z,24.89
2023-05-08T08:41:03.140Z,24.90
2023-05-08T08:42:03.185Z,24.93
2023-05-08T08:43:03.234Z,24.94
2023-05-08T08:44:03.332Z,24.92
2023-05-08T08:45:03.347Z,24.94
2023-05-08T08:46:03.416Z,24.94
2023-05-08T08:47:03.416Z,24.99
2023-05-08T08:48:03.517Z,24.92
2023-05-08T08:49:03.544Z,24.85
2023-05-08T08:50:03.707Z,24.81
2023-05-08T08:51:03.728Z,24.81
2023-05-08T08:52:03.798Z,24.78
2023-05-08T08:53:03.701Z,24.75
2023-05-08T08:54:03.688Z,24.71
2023-05-08T08:55:03.740Z,24.69
2023-05-08T08:56:03.705Z,24.62
2023-05-08T08:57:03.701Z,24.64
2023-05-08T08:58:03.730Z,24.58
2023-05-08T08:59:03.704Z,24.54
2023-05-08T09:00:03.712Z,24.57
2023-05-08T09:01:03.724Z,24.44
2023-05-08T09:02:03.719Z,24.51
2023-05-08T09:03:03.884Z,24.50
2023-05-08T09:04:03.851Z,24.54
2023-05-08T09:05:03.793Z,24.51
2023-05-08T09:06:03.780Z,24.54
2023-05-08T09:07:03.798Z,24.55
2023-05-08T09:08:03.800Z,24.58
2023-05-08T09:09:03.786Z,24.61
2023-05-08T09:10:03.753Z,24.62
2023-05-08T09:11:03.722Z,24.67
2023-05-08T09:12:03.810Z,24.69
2023-05-08T09:13:03.840Z,24.71
2023-05-08T09:14:03.893Z,24.74
2023-05-08T09:15:03.954Z,24.78
2023-05-08T09:16:04.017Z,24.78
2023-05-08T09:17:04.051Z,24.81
2023-05-08T09:18:04.182Z,24.82
2023-05-08T09:19:04.768Z,24.85
2023-05-08T09:20:04.201Z,24.87
2023-05-08T09:21:04.282Z,24.87
2023-05-08T09:22:04.298Z,24.87
2023-05-08T09:23:04.355Z,24.94
2023-05-08T09:24:04.592Z,24.94
2023-05-08T09:25:04.455Z,24.96
2023-05-08T09:26:04.471Z,24.99
2023-05-08T09:27:04.521Z,24.99
2023-05-08T09:28:04.554Z,25.02
2023-05-08T09:29:04.606Z,25.03
2023-05-08T09:30:04.734Z,25.07
2023-05-08T09:31:04.608Z,25.07
2023-05-08T09:32:04.686Z,25.09
2023-05-08T09:33:04.843Z,25.11
2023-05-08T09:34:05.550Z,25.13
2023-05-08T09:35:04.803Z,25.16
2023-05-08T09:36:04.761Z,25.19
2023-05-08T09:37:04.829Z,25.19
2023-05-08T09:38:05.036Z,25.20
2023-05-08T09:39:04.809Z,25.23
2023-05-08T09:40:04.913Z,25.21
2023-05-08T09:41:04.845Z,25.24
2023-05-08T09:42:04.865Z,25.27
2023-05-08T09:43:04.883Z,25.28
2023-05-08T09:44:04.899Z,25.28
2023-05-08T09:45:04.925Z,25.27
2023-05-08T09:46:04.951Z,25.24
2023-05-08T09:47:04.932Z,25.34
2023-05-08T09:48:05.182Z,25.33
2023-05-08T09:49:04.962Z,25.33
2023-05-08T09:50:04.969Z,25.31
2023-05-08T09:51:04.974Z,25.30
2023-05-08T09:52:05.034Z,25.26
2023-05-08T09:53:04.997Z,25.23
2023-05-08T09:54:05.025Z,25.20
2023-05-08T09:55:05.068Z,25.20
2023-05-08T09:56:05.234Z,25.13
2023-05-08T09:57:05.160Z,25.09
2023-05-08T09:58:05.214Z,25.07
2023-05-08T09:59:05.261Z,25.05
2023-05-08T10:00:05.291Z,25.02
2023-05-08T10:01:05.383Z,24.96
2023-05-08T10:02:05.410Z,24.94
2023-05-08T10:03:05.482Z,24.90
2023-05-08T10:04:05.783Z,24.86
2023-05-08T10:05:05.670Z,24.86
2023-05-08T10:06:05.665Z,24.82
2023-05-08T10:07:05.692Z,24.78
2023-05-08T10:08:05.743Z,24.76
2023-05-08T10:09:05.804Z,24.74
2023-05-08T10:10:05.843Z,24.69
2023-05-08T10:11:05.861Z,24.69
2023-05-08T10:12:05.948Z,24.64
2023-05-08T10:13:05.910Z,24.62
2023-05-08T10:14:05.882Z,24.62
2023-05-08T10:15:05.886Z,24.58
2023-05-08T10:16:05.855Z,24.57
2023-05-08T10:17:05.865Z,24.55
2023-05-08T10:18:05.936Z,24.54
2023-05-08T10:19:05.895Z,24.52
2023-05-08T10:20:05.854Z,24.50
2023-05-08T10:21:05.886Z,24.47
2023-05-08T10:22:05.846Z,24.46
2023-05-08T10:23:05.874Z,24.42
2023-05-08T10:24:05.866Z,24.44
2023-05-08T10:25:05.865Z,24.41
2023-05-08T10:26:05.887Z,24.40
2023-05-08T10:27:07.490Z,24.37
2023-05-08T10:28:06.014Z,24.34
2023-05-08T10:29:05.897Z,24.31
2023-05-08T10:30:05.939Z,24.33
2023-05-08T10:31:06.020Z,24.33
2023-05-08T10:32:05.978Z,24.30
2023-05-08T10:33:06.165Z,24.26
2023-05-08T10:34:06.026Z,24.26
2023-05-08T10:35:06.044Z,24.24
2023-05-08T10:36:06.068Z,24.21
2023-05-08T10:37:06.105Z,24.23
2023-05-08T10:38:06.632Z,24.21
2023-05-08T10:39:06.149Z,24.19
2023-05-08T10:40:06.182Z,24.17
2023-05-08T10:41:06.231Z,24.17
2023-05-08T10:42:06.242Z,24.12
2023-05-08T10:43:06.285Z,24.12
2023-05-08T10:44:06.392Z,24.13
2023-05-08T10:45:06.309Z,24.09
2023-05-08T10:46:06.436Z,24.15
2023-05-08T10:47:06.422Z,24.16
2023-05-08T10:48:06.500Z,24.16
2023-05-08T10:49:06.494Z,24.17
2023-05-08T10:50:06.517Z,24.20
2023-05-08T10:51:06.509Z,24.19
2023-05-08T10:52:06.534Z,24.24
2023-05-08T10:53:06.656Z,24.21
2023-05-08T10:54:06.608Z,24.24
2023-05-08T10:55:06.642Z,24.27
2023-05-08T10:56:06.628Z,24.27
2023-05-08T10:57:06.661Z,24.31
2023-05-08T10:58:06.660Z,24.33
2023-05-08T10:59:06.730Z,24.35
2023-05-08T11:00:06.703Z,24.35
2023-05-08T11:01:07.763Z,24.38
2023-05-08T11:02:06.699Z,24.37
2023-05-08T11:03:14.110Z,24.40
2023-05-08T11:04:07.784Z,24.41
2023-05-08T11:05:06.711Z,24.42
2023-05-08T11:06:06.698Z,24.44
2023-05-08T11:07:06.663Z,24.47
2023-05-08T11:08:06.652Z,24.48
2023-05-08T11:09:06.684Z,24.51
2023-05-08T11:10:06.648Z,24.55
2023-05-08T11:11:06.658Z,24.61
2023-05-08T11:12:06.615Z,24.61
2023-05-08T11:13:07.225Z,24.67
2023-05-08T11:14:06.624Z,24.67
2023-05-08T11:15:06.623Z,24.69
2023-05-08T11:16:06.662Z,24.72
2023-05-08T11:17:06.590Z,24.75
2023-05-08T11:18:06.679Z,24.74
2023-05-08T11:19:06.634Z,24.78
2023-05-08T11:20:06.563Z,24.78
2023-05-08T11:21:06.622Z,24.81
2023-05-08T11:22:06.644Z,24.83
2023-05-08T11:23:06.728Z,24.85
2023-05-08T11:24:07.107Z,24.86
2023-05-08T11:25:06.823Z,24.87
2023-05-08T11:26:06.881Z,24.90
2023-05-08T11:27:06.954Z,24.92
2023-05-08T11:28:07.029Z,24.92
2023-05-08T11:29:07.082Z,24.96
2023-05-08T11:30:07.154Z,24.94
2023-05-08T11:31:07.232Z,24.90
2023-05-08T11:32:07.515Z,24.83
2023-05-08T11:33:07.424Z,24.89
2023-05-08T11:34:07.655Z,24.92
2023-05-08T11:35:07.485Z,24.89
2023-05-08T11:36:07.518Z,24.87
2023-05-08T11:37:07.590Z,24.83
2023-05-08T11:38:07.592Z,24.81
2023-05-08T11:39:07.701Z,24.79
2023-05-08T11:40:07.657Z,24.78
2023-05-08T11:41:07.659Z,24.74
2023-05-08T11:42:07.656Z,24.69
2023-05-08T11:43:07.640Z,24.69
2023-05-08T11:44:07.642Z,24.65
2023-05-08T11:45:07.671Z,24.62
2023-05-08T11:46:07.638Z,24.61
2023-05-08T11:47:07.773Z,24.61
2023-05-08T11:48:07.731Z,24.57
2023-05-08T11:49:07.657Z,24.57
2023-05-08T11:50:07.624Z,24.52
2023-05-08T11:51:07.674Z,24.52
2023-05-08T11:52:07.653Z,24.47
2023-05-08T11:53:07.654Z,24.50
2023-05-08T11:54:07.704Z,24.47
2023-05-08T11:55:07.673Z,24.42
2023-05-08T11:56:07.664Z,24.42
2023-05-08T11:57:07.703Z,24.41
2023-05-08T11:58:07.723Z,24.38
2023-05-08T11:59:07.741Z,24.38
2023-05-08T12:00:07.746Z,24.34
2023-05-08T12:01:07.781Z,24.35
2023-05-08T12:02:09.457Z,24.33
2023-05-08T12:03:07.924Z,24.34
2023-05-08T12:04:07.897Z,24.31
2023-05-08T12:05:08.041Z,24.28
2023-05-08T12:06:07.816Z,24.28
2023-05-08T12:07:07.825Z,24.26
2023-05-08T12:08:07.869Z,24.27
2023-05-08T12:09:07.868Z,24.24
2023-05-08T12:10:07.890Z,24.23
2023-05-08T12:11:07.904Z,24.23
2023-05-08T12:12:07.952Z,24.20
2023-05-08T12:13:08.018Z,24.20
2023-05-08T12:14:08.002Z,24.21
2023-05-08T12:15:08.052Z,24.17
2023-05-08T12:16:08.151Z,24.17
2023-05-08T12:17:08.177Z,24.16
2023-05-08T12:18:08.244Z,24.15
2023-05-08T12:19:08.180Z,24.13
2023-05-08T12:20:08.209Z,24.13
2023-05-08T12:21:08.256Z,24.12
2023-05-08T12:22:08.298Z,24.10
2023-05-08T12:23:08.361Z,24.09
2023-05-08T12:24:08.348Z,24.10
2023-05-08T12:25:08.417Z,24.09
2023-05-08T12:26:08.455Z,24.06
2023-05-08T12:27:08.503Z,24.06
2023-05-08T12:28:08.542Z,24.06
2023-05-08T12:29:08.625Z,24.06
2023-05-08T12:30:08.625Z,24.05
2023-05-08T12:31:08.729Z,24.05
2023-05-08T12:32:08.709Z,24.06
2023-05-08T12:33:08.825Z,24.02
2023-05-08T12:34:08.795Z,24.00
2023-05-08T12:35:08.888Z,24.00
2023-05-08T12:36:08.917Z,24.00
2023-05-08T12:37:08.938Z,24.00
2023-05-08T12:38:08.995Z,23.98
2023-05-08T12:39:09.033Z,23.98
2023-05-08T12:40:09.070Z,23.96
2023-05-08T12:41:09.128Z,23.98
2023-05-08T12:42:09.156Z,23.96
2023-05-08T12:43:09.228Z,23.96
2023-05-08T12:44:09.259Z,23.96
2023-05-08T12:45:09.300Z,23.92
2023-05-08T12:46:09.394Z,23.95
2023-05-08T12:47:09.449Z,23.93
2023-05-08T12:48:09.539Z,23.92
2023-05-08T12:49:09.533Z,23.95
2023-05-08T12:50:09.736Z,23.95
2023-05-08T12:51:09.661Z,23.90
2023-05-08T12:52:09.788Z,23.92
2023-05-08T12:53:09.738Z,23.89